Flight Track Log - Related Links

Times and Time Zones

All times are in EDT time to prevent confusion due to time zone crossing. See the C-GONN flight status page for this flight to view local times or setup timezone preferences in your user account.

Time Position Orientation Groundspeed Altitude Reporting Facility
EDT Latitude Longitude Course Direction KTS MPH feet Rate Location/Type
Fri 10:03:33 PM 49.1667 -123.1667 201° Southwest 110 127 700  Level Vancouver Center
Fri 10:04:33 PM 49.1500 -123.1333 127° Southeast 120 138 2,000 1,150 Climbing Vancouver Center
Fri 10:05:33 PM 49.1167 -123.1333 180° South 140 161 3,000 950 Climbing Vancouver Center
Fri 10:06:33 PM 49.0667 -123.1333 180° South 170 196 3,900 500 Climbing Vancouver Center
Fri 10:07:33 PM 49.0167 -123.1833 213° Southwest 200 230 4,000 50 Climbing Vancouver Center
Fri 10:08:00 PM 48.9708 -123.2048 201° Southwest  Level FlightAware Approximate
Fri 10:08:33 PM 48.9667 -123.2167 204° Southwest 200 230 4,000  Level Vancouver Center
Fri 10:09:33 PM 48.9167 -123.2333 192° South 200 230 4,000  Level Vancouver Center
Fri 10:10:33 PM 48.9000 -123.3167 253° West 200 230 4,000  Level Vancouver Center
Fri 10:11:33 PM 48.8667 -123.4000 239° Southwest 200 230 4,000  Level Vancouver Center
Fri 10:12:33 PM 48.8500 -123.4667 249° West 190 219 4,000  Level Vancouver Center
Fri 10:13:33 PM 48.8333 -123.5500 253° West 190 219 4,000 100 Level Vancouver Center
Fri 10:14:33 PM 48.8167 -123.6167 249° West 180 207 4,200 100 Climbing Vancouver Center
Fri 10:15:33 PM 48.7833 -123.6667 225° Southwest 180 207 4,200  Level Vancouver Center
Fri 10:16:33 PM 48.7667 -123.7500 253° West 150 173 4,200  Level Vancouver Center
Fri 10:17:33 PM 48.7500 -123.7667 213° Southwest 130 150 4,200  Level Vancouver Center
Fri 10:18:33 PM 48.7000 -123.7667 180° South 140 161 4,200 -150 Level Vancouver Center
Fri 10:19:33 PM 48.6833 -123.7000 111° Southeast 180 207 3,900 -650 Descending Vancouver Center
Fri 10:20:33 PM 48.6667 -123.6500 117° Southeast 200 230 2,900 -1,050 Descending Vancouver Center
Fri 10:21:33 PM 48.6500 -123.5500 104° East 170 196 1,800 -950 Descending Vancouver Center
Fri 10:22:33 PM 48.6500 -123.5000 90° East 130 150 1,000 -700 Descending Vancouver Center
Fri 10:23:33 PM 48.6333 -123.4500 117° Southeast 110 127 400 -450 Descending Vancouver Center
Fri 10:24:33 PM 48.6333 -123.4167 90° East 50 58 100 -300 Descending Vancouver Center

Login

Don't have an account? Register now (free) for customized features, flight alerts, and more!